createdAt,value
2022-12-01T00:01:21.155Z,63.97
2022-12-01T00:02:54.309Z,61.38
2022-12-01T00:04:27.473Z,59.38
2022-12-01T00:06:01.345Z,61.50
2022-12-01T00:07:34.594Z,59.55
2022-12-01T00:09:25.467Z,64.63
2022-12-01T00:11:04.908Z,58.33
2022-12-01T00:12:43.436Z,59.92
2022-12-01T00:14:16.886Z,57.63
2022-12-01T00:15:51.306Z,58.40
2022-12-01T00:17:23.393Z,58.83
2022-12-01T00:18:56.476Z,56.90
2022-12-01T00:20:30.169Z,56.88
2022-12-01T00:22:03.204Z,54.80
2022-12-01T00:23:35.305Z,54.10
2022-12-01T00:25:08.841Z,54.85
2022-12-01T00:26:41.926Z,55.75
2022-12-01T00:28:15.194Z,57.83
2022-12-01T00:29:48.640Z,56.63
2022-12-01T00:31:23.215Z,54.13
2022-12-01T00:32:56.320Z,53.92
2022-12-01T00:34:28.826Z,54.85
2022-12-01T00:36:02.308Z,54.55
2022-12-01T00:37:36.796Z,56.27
2022-12-01T00:39:10.753Z,58.40
2022-12-01T00:40:44.166Z,53.38
2022-12-01T00:42:17.266Z,54.22
2022-12-01T00:43:49.432Z,57.72
2022-12-01T00:45:22.489Z,53.55
2022-12-01T00:46:56.970Z,55.67
2022-12-01T00:48:30.162Z,50.78
2022-12-01T00:50:03.640Z,54.72
2022-12-01T00:51:36.685Z,50.60
2022-12-01T00:53:09.889Z,53.90
2022-12-01T00:54:43.380Z,53.77
2022-12-01T00:56:16.491Z,51.33
2022-12-01T00:57:49.606Z,51.53
2022-12-01T00:59:22.682Z,48.20
2022-12-01T01:01:00.679Z,50.92
2022-12-01T01:02:35.405Z,55.13
2022-12-01T01:04:07.687Z,57.53
2022-12-01T01:05:42.376Z,49.90
2022-12-01T01:07:15.428Z,49.70
2022-12-01T01:08:47.599Z,50.97
2022-12-01T01:10:20.657Z,55.17
2022-12-01T01:11:53.972Z,49.88
2022-12-01T01:13:27.100Z,52.95
2022-12-01T01:15:00.246Z,53.60
2022-12-01T01:16:33.987Z,49.05
2022-12-01T01:18:09.583Z,53.20
2022-12-01T01:19:42.635Z,56.65
2022-12-01T01:21:18.072Z,60.40
2022-12-01T01:22:50.395Z,55.55
2022-12-01T01:24:23.470Z,54.30
2022-12-01T01:26:02.374Z,53.73
2022-12-01T01:27:35.708Z,52.92
2022-12-01T01:29:08.803Z,59.50
2022-12-01T01:30:41.008Z,55.53
2022-12-01T01:32:14.098Z,54.75
2022-12-01T01:33:48.827Z,49.53
2022-12-01T01:35:21.932Z,55.28
2022-12-01T01:36:54.966Z,53.90
2022-12-01T01:38:28.320Z,56.28
2022-12-01T01:40:01.448Z,53.25
2022-12-01T01:41:34.671Z,51.15
2022-12-01T01:43:15.130Z,50.67
2022-12-01T01:44:51.069Z,50.60
2022-12-01T01:46:25.828Z,53.17
2022-12-01T01:48:01.079Z,52.72
2022-12-01T01:49:35.825Z,54.65
2022-12-01T01:51:08.827Z,53.22
2022-12-01T01:52:46.284Z,55.13
2022-12-01T01:54:23.249Z,48.10
2022-12-01T01:55:56.407Z,50.77
2022-12-01T01:57:32.063Z,50.17
2022-12-01T01:59:05.888Z,56.80
2022-12-01T02:00:39.355Z,54.47
2022-12-01T02:02:14.058Z,55.93
2022-12-01T02:03:48.608Z,49.10
2022-12-01T02:05:26.871Z,49.50
2022-12-01T02:06:59.127Z,51.28
2022-12-01T02:08:35.575Z,47.75
2022-12-01T02:10:13.011Z,50.75
2022-12-01T02:12:00.808Z,53.67
2022-12-01T02:13:42.885Z,54.13
2022-12-01T02:15:24.305Z,55.55
2022-12-01T02:17:02.473Z,52.03
2022-12-01T02:18:43.894Z,58.17
2022-12-01T02:20:53.497Z,53.30
2022-12-01T02:22:37.377Z,55.70
2022-12-01T02:24:45.640Z,53.03
2022-12-01T02:26:42.586Z,52.38
2022-12-01T02:28:36.749Z,49.53
2022-12-01T02:30:11.915Z,55.20
2022-12-01T02:31:54.881Z,56.17
2022-12-01T02:33:33.529Z,54.15
2022-12-01T02:35:14.485Z,54.72
2022-12-01T02:36:53.180Z,58.30
2022-12-01T02:38:31.681Z,56.60
2022-12-01T02:40:13.140Z,52.23
2022-12-01T02:41:51.775Z,54.10
2022-12-01T02:43:29.335Z,55.55
2022-12-01T02:45:06.394Z,52.05
2022-12-01T02:46:42.968Z,53.40
2022-12-01T02:48:22.398Z,52.30
2022-12-01T02:49:57.691Z,56.80
2022-12-01T02:51:33.069Z,57.55
2022-12-01T02:53:08.031Z,55.10
2022-12-01T02:54:42.224Z,54.43
2022-12-01T02:56:16.581Z,59.15
2022-12-01T02:57:48.733Z,49.50
2022-12-01T02:59:21.912Z,59.57
2022-12-01T03:01:12.871Z,56.47
2022-12-01T03:03:08.332Z,55.70
2022-12-01T03:04:56.278Z,56.97
2022-12-01T03:06:38.574Z,55.43
2022-12-01T03:08:21.988Z,58.27
2022-12-01T03:10:02.593Z,61.75
2022-12-01T03:11:42.364Z,57.33
2022-12-01T03:13:23.021Z,60.33
2022-12-01T03:15:08.032Z,59.95
2022-12-01T03:16:50.983Z,57.53
2022-12-01T03:18:33.618Z,59.03
2022-12-01T03:20:13.948Z,55.92
2022-12-01T03:21:53.710Z,60.58
2022-12-01T03:23:31.262Z,59.35
2022-12-01T03:25:04.699Z,57.90
2022-12-01T03:26:38.947Z,60.33
2022-12-01T03:28:21.156Z,63.13
2022-12-01T03:29:57.659Z,61.67
2022-12-01T03:31:36.430Z,61.28
2022-12-01T03:33:19.110Z,64.63
2022-12-01T03:34:56.580Z,54.72
2022-12-01T03:36:36.742Z,58.00
2022-12-01T03:38:14.729Z,58.67
2022-12-01T03:39:52.071Z,56.92
2022-12-01T03:41:31.077Z,61.30
2022-12-01T03:43:08.460Z,59.13
2022-12-01T03:44:47.735Z,52.30
2022-12-01T03:46:24.674Z,64.13
2022-12-01T03:47:58.277Z,63.92
2022-12-01T03:49:31.065Z,58.57
2022-12-01T03:51:11.036Z,62.10
2022-12-01T03:52:54.620Z,55.63
2022-12-01T03:54:34.995Z,61.37
2022-12-01T03:56:09.242Z,59.08
2022-12-01T03:57:47.103Z,58.90
2022-12-01T03:59:22.567Z,59.47
2022-12-01T04:00:57.670Z,61.10
2022-12-01T04:02:30.950Z,55.27
2022-12-01T04:04:09.299Z,58.40
2022-12-01T04:05:42.400Z,55.85
2022-12-01T04:07:15.442Z,57.73
2022-12-01T04:08:49.898Z,57.07
2022-12-01T04:10:23.255Z,57.30
2022-12-01T04:12:13.694Z,63.10
2022-12-01T04:13:45.789Z,64.07
2022-12-01T04:15:19.033Z,68.07
2022-12-01T04:16:52.113Z,60.75
2022-12-01T04:18:25.172Z,63.97
2022-12-01T04:19:58.361Z,64.40
2022-12-01T04:21:30.447Z,68.63
2022-12-01T04:23:03.525Z,70.38
2022-12-01T04:24:36.946Z,63.65
2022-12-01T04:26:15.451Z,56.60
2022-12-01T04:27:48.883Z,65.38
2022-12-01T04:29:22.047Z,69.50
2022-12-01T04:30:55.331Z,63.63
2022-12-01T04:32:28.642Z,61.35
2022-12-01T04:34:00.846Z,69.95
2022-12-01T04:35:33.916Z,66.63
2022-12-01T04:37:09.966Z,64.60
2022-12-01T04:38:42.017Z,63.47
2022-12-01T04:40:16.634Z,64.43
2022-12-01T04:41:49.808Z,69.43
2022-12-01T04:43:21.893Z,64.17
2022-12-01T04:44:55.016Z,65.37
2022-12-01T04:46:28.234Z,66.10
2022-12-01T04:48:01.514Z,64.03
2022-12-01T04:49:37.271Z,70.00
2022-12-01T04:51:09.688Z,71.80
2022-12-01T04:52:42.748Z,66.50
2022-12-01T04:54:16.548Z,67.13
2022-12-01T04:55:50.990Z,68.38
2022-12-01T04:57:24.019Z,66.37
2022-12-01T04:58:56.138Z,67.25
2022-12-01T05:00:29.289Z,63.65
2022-12-01T05:02:04.186Z,63.20
2022-12-01T05:03:37.427Z,65.97
2022-12-01T05:05:10.937Z,67.63
2022-12-01T05:06:44.777Z,69.45
2022-12-01T05:08:16.880Z,68.90
2022-12-01T05:09:50.183Z,63.67
2022-12-01T05:11:26.480Z,69.13
2022-12-01T05:13:00.347Z,64.87
2022-12-01T05:14:33.410Z,64.20
2022-12-01T05:16:06.771Z,69.60
2022-12-01T05:17:39.902Z,69.90
2022-12-01T05:19:30.250Z,68.13
2022-12-01T05:21:04.040Z,63.97
2022-12-01T05:23:04.293Z,63.38
2022-12-01T05:24:30.148Z,60.72
2022-12-01T05:26:05.495Z,64.85
2022-12-01T05:27:39.885Z,64.67
2022-12-01T05:29:14.016Z,65.27
2022-12-01T05:30:47.279Z,64.00
2022-12-01T05:32:20.306Z,69.43
2022-12-01T05:33:52.399Z,70.47
2022-12-01T05:35:25.463Z,67.22
2022-12-01T05:36:58.495Z,66.50
2022-12-01T05:38:31.553Z,74.95
2022-12-01T05:40:04.022Z,67.07
2022-12-01T05:41:37.159Z,67.60
2022-12-01T05:43:11.563Z,77.55
2022-12-01T05:44:44.629Z,66.17
2022-12-01T05:46:18.013Z,60.60
2022-12-01T05:47:51.158Z,53.67
2022-12-01T05:49:24.442Z,53.67
2022-12-01T05:50:57.560Z,58.43
2022-12-01T05:52:30.604Z,58.67
2022-12-01T05:54:03.878Z,53.83
2022-12-01T05:55:36.954Z,54.60
2022-12-01T05:57:10.022Z,52.50
2022-12-01T05:58:44.472Z,54.60
2022-12-01T06:00:18.610Z,57.07
2022-12-01T06:01:51.740Z,57.08
2022-12-01T06:03:24.849Z,56.23
2022-12-01T06:04:57.991Z,57.10
2022-12-01T06:06:31.041Z,66.50
2022-12-01T06:08:04.119Z,69.57
2022-12-01T06:09:37.170Z,70.67
2022-12-01T06:11:10.574Z,65.30
2022-12-01T06:12:42.633Z,71.20
2022-12-01T06:14:17.169Z,76.57
2022-12-01T06:15:58.556Z,74.47
2022-12-01T06:17:34.638Z,71.27
2022-12-01T06:19:11.841Z,70.50
2022-12-01T06:20:44.905Z,75.63
2022-12-01T06:22:16.953Z,77.28
2022-12-01T06:23:50.116Z,78.75
2022-12-01T06:25:23.158Z,79.35
2022-12-01T06:26:56.248Z,79.10
2022-12-01T06:28:29.330Z,75.77
2022-12-01T06:30:04.532Z,78.35
2022-12-01T06:31:37.669Z,75.93
2022-12-01T06:33:11.027Z,80.82
2022-12-01T06:34:44.681Z,75.45
2022-12-01T06:36:17.736Z,77.65
2022-12-01T06:37:50.831Z,72.93
2022-12-01T06:39:23.885Z,81.22
2022-12-01T06:40:56.968Z,71.77
2022-12-01T06:42:31.624Z,73.23
2022-12-01T06:44:04.785Z,71.55
2022-12-01T06:45:39.264Z,73.53
2022-12-01T06:47:12.365Z,71.60
2022-12-01T06:48:45.425Z,70.17
2022-12-01T06:50:18.653Z,77.70
2022-12-01T06:51:51.731Z,74.70
2022-12-01T06:53:24.781Z,74.57
2022-12-01T06:54:57.832Z,74.37
2022-12-01T06:56:31.057Z,70.63
2022-12-01T06:58:04.916Z,68.57
2022-12-01T06:59:38.290Z,72.13
2022-12-01T07:01:13.560Z,76.90
2022-12-01T07:02:46.703Z,70.97
2022-12-01T07:04:19.873Z,72.47
2022-12-01T07:05:58.500Z,70.73
2022-12-01T07:07:31.766Z,79.80
2022-12-01T07:09:04.964Z,73.70
2022-12-01T07:10:38.028Z,70.30
2022-12-01T07:12:11.073Z,70.37
2022-12-01T07:13:46.341Z,71.67
2022-12-01T07:15:19.647Z,74.57
2022-12-01T07:16:54.449Z,74.40
2022-12-01T07:18:27.717Z,67.37
2022-12-01T07:20:00.831Z,76.77
2022-12-01T07:21:33.881Z,68.13
2022-12-01T07:23:06.944Z,73.75
2022-12-01T07:24:40.023Z,75.13
2022-12-01T07:26:15.415Z,72.82
2022-12-01T07:27:48.540Z,68.82
2022-12-01T07:29:21.616Z,78.63
2022-12-01T07:30:53.857Z,74.63
2022-12-01T07:32:28.402Z,81.63
2022-12-01T07:34:01.484Z,79.17
2022-12-01T07:35:34.553Z,74.40
2022-12-01T07:37:07.647Z,74.07
2022-12-01T07:38:41.103Z,72.07
2022-12-01T07:40:14.808Z,72.70
2022-12-01T07:41:47.867Z,71.43
2022-12-01T07:43:20.936Z,72.27
2022-12-01T07:44:54.009Z,75.30
2022-12-01T07:46:29.186Z,67.47
2022-12-01T07:48:03.700Z,68.90
2022-12-01T07:49:36.723Z,73.95
2022-12-01T07:51:12.343Z,73.60
2022-12-01T07:52:45.359Z,77.30
2022-12-01T07:54:20.969Z,75.00
2022-12-01T07:55:54.034Z,78.77
2022-12-01T07:57:27.162Z,75.90
2022-12-01T07:59:00.283Z,80.93
2022-12-01T08:00:33.331Z,80.13
2022-12-01T08:02:06.730Z,91.03
2022-12-01T08:03:42.392Z,88.30
2022-12-01T08:05:15.679Z,85.70
2022-12-01T08:06:48.778Z,82.90
2022-12-01T08:08:21.947Z,99.07
2022-12-01T08:09:55.031Z,86.90
2022-12-01T08:11:29.816Z,91.37
2022-12-01T08:13:02.968Z,86.35
2022-12-01T08:14:36.031Z,90.85
2022-12-01T08:16:11.108Z,95.70
2022-12-01T08:17:44.206Z,88.70
2022-12-01T08:19:18.604Z,95.43
2022-12-01T08:20:51.939Z,91.80
2022-12-01T08:22:25.063Z,100.40
2022-12-01T08:23:59.098Z,89.20
2022-12-01T08:25:33.336Z,82.90
2022-12-01T08:27:06.429Z,94.13
2022-12-01T08:28:40.168Z,89.10
2022-12-01T08:30:14.547Z,89.40
2022-12-01T08:31:47.641Z,97.10
2022-12-01T08:33:20.708Z,94.33
2022-12-01T08:34:55.141Z,88.30
2022-12-01T08:36:28.277Z,96.07
2022-12-01T08:38:01.303Z,97.63
2022-12-01T08:39:34.367Z,100.73
2022-12-01T08:41:09.749Z,96.33
2022-12-01T08:42:42.832Z,108.13
2022-12-01T08:44:15.889Z,94.17
2022-12-01T08:45:49.056Z,93.80
2022-12-01T08:47:22.114Z,93.83
2022-12-01T08:48:57.874Z,100.23
2022-12-01T08:50:32.545Z,92.57
2022-12-01T08:52:05.787Z,93.28
2022-12-01T08:53:45.271Z,101.03
2022-12-01T08:55:18.963Z,99.33
2022-12-01T08:56:52.254Z,99.00
2022-12-01T08:58:25.436Z,104.33
2022-12-01T08:59:58.607Z,94.40
2022-12-01T09:01:32.857Z,94.20
2022-12-01T09:03:06.208Z,99.13
2022-12-01T09:04:39.301Z,92.77
2022-12-01T09:06:15.976Z,97.40
2022-12-01T09:08:09.555Z,96.03
2022-12-01T09:09:43.017Z,103.43
2022-12-01T09:11:18.508Z,95.18
2022-12-01T09:12:51.539Z,89.80
2022-12-01T09:14:25.027Z,98.80
2022-12-01T09:16:00.042Z,93.83
2022-12-01T09:17:33.241Z,89.80
2022-12-01T09:19:06.423Z,83.07
2022-12-01T09:20:39.467Z,90.47
2022-12-01T09:22:13.943Z,87.72
2022-12-01T09:23:47.192Z,92.17
2022-12-01T09:25:20.279Z,83.13
2022-12-01T09:26:56.906Z,82.63
2022-12-01T09:28:30.025Z,80.90
2022-12-01T09:30:03.082Z,86.73
2022-12-01T09:31:36.628Z,87.53
2022-12-01T09:33:09.766Z,82.37
2022-12-01T09:34:42.842Z,81.87
2022-12-01T09:36:15.929Z,80.73
2022-12-01T09:37:50.447Z,84.43
2022-12-01T09:39:23.675Z,85.27
2022-12-01T09:40:58.697Z,84.87
2022-12-01T09:42:35.405Z,83.03
2022-12-01T09:44:20.710Z,84.70
2022-12-01T09:46:03.976Z,86.55
2022-12-01T09:47:37.983Z,91.03
2022-12-01T09:49:17.885Z,81.03
2022-12-01T09:50:51.004Z,84.20
2022-12-01T09:52:26.352Z,79.87
2022-12-01T09:54:02.459Z,86.13
2022-12-01T09:55:36.862Z,81.90
2022-12-01T09:57:18.470Z,87.23
2022-12-01T09:58:55.939Z,82.50
2022-12-01T10:00:32.642Z,86.47
2022-12-01T10:02:32.379Z,77.77
2022-12-01T10:04:12.362Z,77.87
2022-12-01T10:06:18.435Z,80.07
2022-12-01T10:07:47.092Z,80.57
2022-12-01T10:09:27.004Z,80.97
2022-12-01T10:11:06.886Z,80.67
2022-12-01T10:12:44.120Z,77.20
2022-12-01T10:14:21.088Z,84.53
2022-12-01T10:16:02.023Z,81.77
2022-12-01T10:17:43.006Z,92.63
2022-12-01T10:19:23.236Z,90.33
2022-12-01T10:21:04.430Z,89.37
2022-12-01T10:23:09.509Z,94.43
2022-12-01T10:24:54.187Z,90.77
2022-12-01T10:26:35.342Z,96.67
2022-12-01T10:28:30.588Z,92.63
2022-12-01T10:30:07.460Z,98.50
2022-12-01T10:31:52.582Z,96.10
2022-12-01T10:33:27.999Z,97.33
2022-12-01T10:35:01.186Z,99.37
2022-12-01T10:36:35.358Z,100.63
2022-12-01T10:38:17.835Z,99.55
2022-12-01T10:39:54.901Z,98.27
2022-12-01T10:41:31.088Z,93.37
2022-12-01T10:43:04.376Z,91.07
2022-12-01T10:44:37.501Z,88.67
2022-12-01T10:46:28.387Z,85.07
2022-12-01T10:48:17.114Z,76.20
2022-12-01T10:49:51.004Z,79.37
2022-12-01T10:51:25.479Z,85.85
2022-12-01T10:52:58.734Z,78.53
2022-12-01T10:54:36.205Z,92.63
2022-12-01T10:56:15.009Z,82.73
2022-12-01T10:57:48.221Z,84.03
2022-12-01T10:59:27.358Z,84.23
2022-12-01T11:01:03.655Z,89.90
2022-12-01T11:02:37.221Z,79.53
2022-12-01T11:04:32.524Z,84.43
2022-12-01T11:06:08.108Z,77.50
2022-12-01T11:07:45.253Z,73.83
2022-12-01T11:09:26.028Z,82.03
2022-12-01T11:10:59.805Z,82.70
2022-12-01T11:12:34.722Z,84.30
2022-12-01T11:14:26.371Z,86.00
2022-12-01T11:16:00.959Z,87.00
2022-12-01T11:17:38.017Z,82.63
2022-12-01T11:19:26.980Z,84.57
2022-12-01T11:21:10.480Z,88.27
2022-12-01T11:22:43.596Z,85.00
2022-12-01T11:24:42.166Z,81.93
2022-12-01T11:26:17.762Z,83.57
2022-12-01T11:27:57.544Z,82.43
2022-12-01T11:29:36.052Z,82.60
2022-12-01T11:31:11.995Z,84.27
2022-12-01T11:32:53.831Z,79.07
2022-12-01T11:34:29.646Z,82.80
2022-12-01T11:36:02.766Z,80.43
2022-12-01T11:37:39.684Z,77.60
2022-12-01T11:39:24.636Z,84.73
2022-12-01T11:40:59.090Z,78.93
2022-12-01T11:42:34.387Z,80.17
2022-12-01T11:46:12.621Z,74.40
2022-12-01T11:48:04.522Z,73.93
2022-12-01T11:49:47.076Z,74.50
2022-12-01T11:51:29.925Z,78.63
2022-12-01T11:53:03.410Z,74.13
2022-12-01T11:54:36.559Z,74.17
2022-12-01T11:56:19.047Z,74.77
2022-12-01T11:57:54.599Z,70.80
2022-12-01T11:59:30.518Z,69.80
2022-12-01T12:01:04.101Z,69.10
2022-12-01T12:02:44.258Z,69.03
2022-12-01T12:04:40.198Z,73.27
2022-12-01T12:08:27.756Z,74.00
2022-12-01T12:10:13.734Z,76.10
2022-12-01T12:11:56.340Z,86.50
2022-12-01T12:13:54.618Z,87.07
2022-12-01T12:15:39.051Z,82.03
2022-12-01T12:17:44.737Z,82.83
2022-12-01T12:19:52.481Z,86.93
2022-12-01T12:21:34.930Z,87.23
2022-12-01T12:23:21.479Z,89.03
2022-12-01T12:25:04.240Z,84.30
2022-12-01T12:26:44.874Z,83.37
2022-12-01T12:28:32.099Z,81.70
2022-12-01T12:30:15.008Z,87.10
2022-12-01T12:32:05.035Z,89.80
2022-12-01T12:34:08.396Z,84.37
2022-12-01T12:35:49.840Z,83.50
2022-12-01T12:37:32.652Z,84.90
2022-12-01T12:39:24.335Z,84.17
2022-12-01T12:41:07.757Z,89.03
2022-12-01T12:42:50.510Z,96.60
2022-12-01T12:44:44.324Z,83.07
2022-12-01T12:46:23.222Z,83.73
2022-12-01T12:48:17.624Z,83.17
2022-12-01T12:49:59.653Z,85.07
2022-12-01T12:51:36.551Z,89.17
2022-12-01T12:53:16.803Z,85.13
2022-12-01T12:54:53.630Z,87.13
2022-12-01T12:56:28.727Z,88.07
2022-12-01T12:58:11.244Z,91.07
2022-12-01T12:59:51.183Z,84.00
2022-12-01T13:01:27.523Z,78.77
2022-12-01T13:03:10.579Z,81.00
2022-12-01T13:04:49.719Z,83.47
2022-12-01T13:06:27.162Z,81.37
2022-12-01T13:08:05.364Z,78.73
2022-12-01T13:09:42.770Z,79.93
2022-12-01T13:11:21.114Z,89.70
2022-12-01T13:13:00.448Z,79.90
2022-12-01T13:14:37.656Z,75.33
2022-12-01T13:16:16.008Z,83.73
2022-12-01T13:17:52.974Z,84.60
2022-12-01T13:19:31.633Z,88.17
2022-12-01T13:21:06.574Z,91.97
2022-12-01T13:22:40.609Z,88.47
2022-12-01T13:24:22.837Z,86.60
2022-12-01T13:26:00.179Z,85.63
2022-12-01T13:27:35.827Z,85.80
2022-12-01T13:29:14.992Z,91.33
2022-12-01T13:31:03.293Z,92.13
2022-12-01T13:32:40.301Z,88.30
2022-12-01T13:34:23.289Z,94.20
2022-12-01T13:36:30.025Z,85.53
2022-12-01T13:37:51.648Z,97.20
2022-12-01T13:39:27.759Z,93.83
2022-12-01T13:41:24.187Z,89.53
2022-12-01T13:43:06.940Z,88.77
2022-12-01T13:44:44.150Z,94.80
2022-12-01T13:46:23.282Z,90.33
2022-12-01T13:47:57.195Z,89.60
2022-12-01T13:49:39.733Z,80.27
2022-12-01T13:51:14.252Z,80.90
2022-12-01T13:52:51.438Z,84.38
2022-12-01T13:54:31.621Z,91.07
2022-12-01T13:56:27.584Z,79.22
2022-12-01T13:58:25.651Z,85.18
2022-12-01T14:00:23.965Z,82.10
2022-12-01T14:02:15.096Z,80.27
2022-12-01T14:03:53.991Z,87.23
2022-12-01T14:05:51.775Z,85.07
2022-12-01T14:07:37.516Z,81.60
2022-12-01T14:09:18.848Z,78.30
2022-12-01T14:10:58.263Z,81.57
2022-12-01T14:12:37.597Z,87.10
2022-12-01T14:14:14.350Z,84.90
2022-12-01T14:15:56.047Z,79.20
2022-12-01T14:17:32.482Z,85.17
2022-12-01T14:19:05.601Z,90.17
2022-12-01T14:20:46.935Z,90.23
2022-12-01T14:22:34.109Z,81.17
2022-12-01T14:24:19.273Z,79.37
2022-12-01T14:26:15.310Z,89.33
2022-12-01T14:27:51.246Z,85.30
2022-12-01T14:29:33.108Z,81.93
2022-12-01T14:31:07.000Z,92.57
2022-12-01T14:32:40.147Z,92.40
2022-12-01T14:34:18.952Z,86.20
2022-12-01T14:35:53.271Z,89.83
2022-12-01T14:37:34.291Z,84.93
2022-12-01T14:39:16.078Z,85.57
2022-12-01T14:40:49.268Z,90.10
2022-12-01T14:42:46.820Z,95.63
2022-12-01T14:44:28.823Z,96.47
2022-12-01T14:46:07.848Z,92.80
2022-12-01T14:47:44.699Z,95.63
2022-12-01T14:49:24.969Z,97.63
2022-12-01T14:51:14.580Z,88.67
2022-12-01T14:52:51.822Z,97.13
2022-12-01T14:54:30.159Z,92.67
2022-12-01T14:56:11.778Z,103.00
2022-12-01T14:57:49.698Z,89.55
2022-12-01T14:59:26.258Z,96.17
2022-12-01T15:01:06.595Z,112.27
2022-12-01T15:02:41.690Z,100.43
2022-12-01T15:04:15.440Z,91.07
2022-12-01T15:05:48.965Z,94.60
2022-12-01T15:07:22.756Z,95.20
2022-12-01T15:11:10.708Z,88.10
2022-12-01T15:12:44.245Z,97.22
2022-12-01T15:14:29.636Z,89.33
2022-12-01T15:16:05.124Z,93.33
2022-12-01T15:17:38.254Z,83.97
2022-12-01T15:19:24.102Z,94.90
2022-12-01T15:21:00.707Z,85.27
2022-12-01T15:22:35.346Z,87.80
2022-12-01T15:24:23.743Z,89.27
2022-12-01T15:25:57.836Z,83.68
2022-12-01T15:27:33.739Z,86.07
2022-12-01T15:29:15.377Z,78.63
2022-12-01T15:30:50.759Z,86.53
2022-12-01T15:32:25.752Z,77.43
2022-12-01T15:33:59.298Z,73.40
2022-12-01T15:35:32.608Z,74.05
2022-12-01T15:37:08.629Z,70.63
2022-12-01T15:38:44.884Z,74.65
2022-12-01T15:42:23.320Z,73.30
2022-12-01T15:43:59.189Z,74.93
2022-12-01T15:45:44.362Z,85.82
2022-12-01T15:47:35.905Z,75.35
2022-12-01T15:49:10.931Z,76.40
2022-12-01T15:50:47.688Z,74.00
2022-12-01T15:52:21.288Z,71.78
2022-12-01T15:53:56.304Z,74.30
2022-12-01T15:55:31.906Z,76.88
2022-12-01T15:57:06.095Z,72.13
2022-12-01T15:58:43.734Z,73.72
2022-12-01T16:00:21.945Z,74.03
2022-12-01T16:01:56.789Z,72.40
2022-12-01T16:03:30.270Z,75.63
2022-12-01T16:05:07.463Z,75.47
2022-12-01T16:06:41.379Z,79.13
2022-12-01T16:08:16.716Z,82.33
2022-12-01T16:09:58.041Z,95.95
2022-12-01T16:11:31.380Z,151.70
2022-12-01T16:13:47.236Z,73.67
2022-12-01T16:15:22.772Z,71.13
2022-12-01T16:16:55.965Z,69.28
2022-12-01T16:18:32.499Z,68.60
2022-12-01T16:20:26.954Z,66.50
2022-12-01T16:22:05.798Z,80.72
2022-12-01T16:23:38.855Z,75.60
2022-12-01T16:25:18.270Z,77.47
2022-12-01T16:26:54.117Z,78.63
2022-12-01T16:28:35.408Z,83.97
2022-12-01T16:30:23.156Z,74.88
2022-12-01T16:32:19.416Z,76.60
2022-12-01T16:34:06.527Z,80.18
2022-12-01T16:35:47.306Z,80.53
2022-12-01T16:37:21.569Z,78.63
2022-12-01T16:38:54.666Z,77.77
2022-12-01T16:40:27.965Z,80.17
2022-12-01T16:42:01.962Z,76.78
2022-12-01T16:43:35.129Z,75.20
2022-12-01T16:45:13.657Z,82.28
2022-12-01T16:46:48.084Z,75.72
2022-12-01T16:48:21.573Z,78.22
2022-12-01T16:49:54.649Z,78.35
2022-12-01T16:51:35.440Z,83.93
2022-12-01T16:53:20.776Z,77.38
2022-12-01T16:54:53.852Z,77.85
2022-12-01T16:56:27.072Z,69.40
2022-12-01T16:58:00.148Z,78.47
2022-12-01T16:59:33.406Z,77.65
2022-12-01T17:01:08.241Z,77.80
2022-12-01T17:02:42.761Z,77.72
2022-12-01T17:04:15.863Z,78.03
2022-12-01T17:05:49.108Z,73.30
2022-12-01T17:07:22.329Z,78.68
2022-12-01T17:08:55.403Z,73.78
2022-12-01T17:10:28.476Z,79.53
2022-12-01T17:12:01.504Z,73.78
2022-12-01T17:13:34.923Z,78.10
2022-12-01T17:15:08.725Z,82.13
2022-12-01T17:16:41.819Z,77.68
2022-12-01T17:18:17.663Z,80.80
2022-12-01T17:19:53.347Z,74.05
2022-12-01T17:21:26.399Z,77.20
2022-12-01T17:22:59.783Z,75.57
2022-12-01T17:24:32.838Z,76.82
2022-12-01T17:26:11.309Z,77.47
2022-12-01T17:27:45.720Z,71.18
2022-12-01T17:29:18.818Z,71.38
2022-12-01T17:30:51.912Z,79.80
2022-12-01T17:32:25.040Z,77.60
2022-12-01T17:33:59.464Z,71.47
2022-12-01T17:35:32.601Z,77.05
2022-12-01T17:37:05.720Z,76.63
2022-12-01T17:38:40.277Z,75.65
2022-12-01T17:40:14.854Z,73.67
2022-12-01T17:41:47.950Z,70.85
2022-12-01T17:43:23.145Z,71.30
2022-12-01T17:44:56.213Z,80.68
2022-12-01T17:46:30.150Z,76.47
2022-12-01T17:48:03.365Z,75.13
2022-12-01T17:49:38.417Z,77.27
2022-12-01T17:51:13.077Z,74.60
2022-12-01T17:52:46.153Z,75.25
2022-12-01T17:54:19.190Z,78.33
2022-12-01T17:55:52.254Z,74.75
2022-12-01T17:57:25.315Z,75.47
2022-12-01T17:58:58.421Z,74.63
2022-12-01T18:00:31.767Z,75.20
2022-12-01T18:02:05.325Z,73.37
2022-12-01T18:03:38.438Z,68.37
2022-12-01T18:05:12.886Z,77.37
2022-12-01T18:06:49.354Z,73.03
2022-12-01T18:08:28.246Z,76.83
2022-12-01T18:10:02.400Z,71.93
2022-12-01T18:11:35.469Z,70.83
2022-12-01T18:13:08.553Z,72.03
2022-12-01T18:14:41.599Z,72.07
2022-12-01T18:16:17.552Z,72.43
2022-12-01T18:17:50.629Z,77.13
2022-12-01T18:19:24.503Z,72.87
2022-12-01T18:20:58.907Z,68.60
2022-12-01T18:22:31.960Z,73.17
2022-12-01T18:24:08.786Z,75.60
2022-12-01T18:25:42.145Z,71.83
2022-12-01T18:27:15.188Z,71.30
2022-12-01T18:28:48.518Z,74.20
2022-12-01T18:30:21.645Z,70.80
2022-12-01T18:31:55.576Z,73.72
2022-12-01T18:33:28.663Z,70.00
2022-12-01T18:35:01.727Z,73.90
2022-12-01T18:36:37.756Z,69.90
2022-12-01T18:38:10.898Z,72.27
2022-12-01T18:39:43.940Z,74.70
2022-12-01T18:41:17.815Z,71.90
2022-12-01T18:42:50.989Z,71.67
2022-12-01T18:44:24.081Z,71.93
2022-12-01T18:45:57.588Z,74.30
2022-12-01T18:47:30.769Z,72.67
2022-12-01T18:49:05.016Z,75.77
2022-12-01T18:50:38.101Z,69.70
2022-12-01T18:52:12.540Z,74.13
2022-12-01T18:53:46.094Z,76.23
2022-12-01T18:55:19.232Z,77.83
2022-12-01T18:56:53.437Z,77.13
2022-12-01T18:58:26.486Z,73.75
2022-12-01T18:59:59.608Z,75.23
2022-12-01T19:01:36.149Z,72.17
2022-12-01T19:03:09.353Z,74.40
2022-12-01T19:04:43.242Z,79.33
2022-12-01T19:06:17.050Z,74.77
2022-12-01T19:07:54.748Z,77.63
2022-12-01T19:09:27.892Z,80.87
2022-12-01T19:11:00.845Z,77.00
2022-12-01T19:12:40.684Z,76.60
2022-12-01T19:14:16.760Z,74.33
2022-12-01T19:15:50.797Z,81.20
2022-12-01T19:17:24.126Z,76.40
2022-12-01T19:18:57.349Z,77.53
2022-12-01T19:20:30.619Z,79.63
2022-12-01T19:22:03.807Z,79.50
2022-12-01T19:23:38.841Z,74.83
2022-12-01T19:25:13.405Z,77.43
2022-12-01T19:26:46.542Z,80.00
2022-12-01T19:28:19.636Z,74.70
2022-12-01T19:29:53.892Z,72.60
2022-12-01T19:31:27.640Z,78.37
2022-12-01T19:33:00.787Z,81.57
2022-12-01T19:34:34.444Z,73.00
2022-12-01T19:36:11.350Z,75.83
2022-12-01T19:37:44.441Z,74.97
2022-12-01T19:39:18.986Z,71.30
2022-12-01T19:40:52.041Z,76.40
2022-12-01T19:42:25.115Z,76.20
2022-12-01T19:43:59.596Z,75.77
2022-12-01T19:45:33.690Z,74.67
2022-12-01T19:47:07.862Z,80.37
2022-12-01T19:48:41.002Z,72.50
2022-12-01T19:50:14.175Z,73.30
2022-12-01T19:51:47.307Z,79.53
2022-12-01T19:53:20.562Z,76.40
2022-12-01T19:54:55.086Z,77.03
2022-12-01T19:56:29.503Z,77.00
2022-12-01T19:58:02.583Z,75.80
2022-12-01T19:59:35.671Z,77.90
2022-12-01T20:01:11.764Z,75.93
2022-12-01T20:02:44.953Z,72.50
2022-12-01T20:04:18.054Z,74.83
2022-12-01T20:05:51.126Z,76.80
2022-12-01T20:07:24.402Z,80.30
2022-12-01T20:08:59.633Z,72.43
2022-12-01T20:10:34.043Z,72.67
2022-12-01T20:12:07.428Z,78.67
2022-12-01T20:13:42.592Z,74.37
2022-12-01T20:15:15.874Z,77.93
2022-12-01T20:16:49.193Z,78.53
2022-12-01T20:18:22.365Z,75.13
2022-12-01T20:19:55.423Z,77.23
2022-12-01T20:21:30.538Z,78.87
2022-12-01T20:23:03.618Z,75.60
2022-12-01T20:24:39.521Z,76.20
2022-12-01T20:26:14.800Z,75.23
2022-12-01T20:27:47.869Z,78.33
2022-12-01T20:29:25.461Z,74.90
2022-12-01T20:30:59.139Z,80.90
2022-12-01T20:32:34.403Z,75.93
2022-12-01T20:34:10.376Z,74.77
2022-12-01T20:35:43.446Z,71.83
2022-12-01T20:37:16.519Z,75.07
2022-12-01T20:38:49.918Z,76.33
2022-12-01T20:40:22.965Z,73.63
2022-12-01T20:41:57.488Z,81.10
2022-12-01T20:43:30.556Z,74.03
2022-12-01T20:45:03.663Z,73.63
2022-12-01T20:46:38.176Z,72.57
2022-12-01T20:48:11.290Z,75.43
2022-12-01T20:49:44.458Z,70.20
2022-12-01T20:51:17.569Z,73.77
2022-12-01T20:52:50.867Z,73.73
2022-12-01T20:54:28.673Z,71.37